Time;durP1;ratioP1;P1;durP2;ratioP2;P2;SDS_P1;SDS_P2;PMS_P1;PMS_P2;Temp;Humidity;BMP_temperature;BMP_pressure;BME280_temperature;BME280_humidity;BME280_pressure;Samples;Min_cycle;Max_cycle;Signal;HPM_P1;HPM_P2
2021/12/03 00:00:27;;;;;;;14.10;5.90;;;0.40;99.90;;;;;;5029832;28;20091;-68
2021/12/03 00:02:53;;;;;;;22.70;7.45;;;0.50;99.90;;;;;;5021153;28;20412;-67
2021/12/03 00:05:19;;;;;;;9.55;4.13;;;0.40;99.90;;;;;;5027832;28;20025;-67
2021/12/03 00:07:45;;;;;;;27.83;10.55;;;0.40;99.90;;;;;;5031084;28;20092;-67
2021/12/03 00:10:13;;;;;;;12.43;6.90;;;0.50;99.90;;;;;;5030661;28;20028;-67
2021/12/03 00:12:39;;;;;;;9.27;4.40;;;0.50;99.90;;;;;;5031719;28;20029;-67
2021/12/03 00:15:07;;;;;;;17.58;5.75;;;0.60;99.90;;;;;;5027622;28;20022;-67
2021/12/03 00:17:33;;;;;;;15.70;7.57;;;0.50;99.90;;;;;;5029706;28;20013;-67
2021/12/03 00:19:59;;;;;;;9.25;4.95;;;0.60;99.90;;;;;;5022978;28;20433;-67
2021/12/03 00:22:25;;;;;;;7.70;4.47;;;0.60;99.90;;;;;;5032504;28;20117;-67
2021/12/03 00:24:51;;;;;;;13.27;7.60;;;0.70;99.90;;;;;;5030373;28;20039;-67
2021/12/03 00:27:17;;;;;;;18.20;4.35;;;0.70;99.90;;;;;;5028719;28;20494;-67
2021/12/03 00:29:42;;;;;;;10.75;4.00;;;0.60;99.90;;;;;;5022984;28;20022;-67
2021/12/03 00:32:08;;;;;;;16.52;6.18;;;0.70;99.90;;;;;;5030185;28;20032;-67
2021/12/03 00:34:34;;;;;;;9.60;4.22;;;0.80;99.90;;;;;;5027236;28;20481;-67
2021/12/03 00:37:00;;;;;;;21.58;6.18;;;0.80;99.90;;;;;;5022470;28;20481;-67
2021/12/03 00:39:26;;;;;;;6.47;4.30;;;0.80;99.90;;;;;;5031648;28;20052;-67
2021/12/03 00:41:58;;;;;;;17.13;4.97;;;0.80;99.90;;;;;;5031058;28;20039;-67
2021/12/03 00:44:25;;;;;;;12.85;5.57;;;0.80;99.90;;;;;;5028429;28;20017;-67
2021/12/03 00:46:51;;;;;;;21.05;6.60;;;0.80;99.90;;;;;;5030065;28;20025;-67
2021/12/03 00:49:16;;;;;;;14.90;7.93;;;0.80;99.90;;;;;;5031191;28;20452;-67
2021/12/03 00:51:42;;;;;;;24.88;7.20;;;0.80;99.90;;;;;;5030416;28;20021;-67
2021/12/03 00:54:08;;;;;;;17.42;7.93;;;0.80;99.90;;;;;;5030936;28;20108;-67
2021/12/03 00:56:34;;;;;;;18.27;5.70;;;0.80;99.90;;;;;;5018411;28;20520;-67
2021/12/03 00:58:59;;;;;;;14.82;6.75;;;0.80;99.90;;;;;;5027871;28;20105;-67
2021/12/03 01:01:25;;;;;;;16.65;6.55;;;0.80;99.90;;;;;;5020332;28;20039;-67
2021/12/03 01:03:51;;;;;;;10.32;6.03;;;0.80;99.90;;;;;;5026345;28;20473;-67
2021/12/03 01:06:17;;;;;;;22.25;7.50;;;0.80;99.90;;;;;;5028656;28;20100;-67
2021/12/03 01:08:42;;;;;;;30.88;7.25;;;0.80;99.90;;;;;;5029195;28;20033;-67
2021/12/03 01:11:09;;;;;;;18.73;4.57;;;0.80;99.90;;;;;;5028338;28;20365;-67
2021/12/03 01:13:36;;;;;;;13.25;6.22;;;0.80;99.90;;;;;;5024318;28;20389;-67
2021/12/03 01:16:03;;;;;;;14.50;5.30;;;0.90;99.90;;;;;;5027964;28;20018;-67
2021/12/03 01:18:29;;;;;;;15.45;7.15;;;0.90;99.90;;;;;;5029635;28;20019;-67
2021/12/03 01:20:55;;;;;;;10.00;5.38;;;0.90;99.90;;;;;;5029944;28;20172;-67
2021/12/03 01:23:21;;;;;;;13.30;5.00;;;0.90;99.90;;;;;;5029114;28;20112;-67
2021/12/03 01:25:46;;;;;;;21.35;7.78;;;0.90;99.90;;;;;;5029061;28;20029;-67
2021/12/03 01:28:13;;;;;;;7.55;4.28;;;0.90;99.90;;;;;;5030530;28;20040;-67
2021/12/03 01:30:39;;;;;;;9.88;5.38;;;1.00;99.90;;;;;;5022975;28;20025;-67
2021/12/03 01:33:06;;;;;;;4.95;2.50;;;1.00;99.90;;;;;;5025558;28;20057;-67
2021/12/03 01:35:32;;;;;;;10.52;5.30;;;1.00;99.90;;;;;;5027228;28;20021;-67
2021/12/03 01:37:58;;;;;;;7.63;4.70;;;1.00;99.90;;;;;;5030600;28;20425;-67
2021/12/03 01:40:27;;;;;;;10.45;5.40;;;1.00;99.90;;;;;;5028611;28;20099;-67
2021/12/03 01:42:53;;;;;;;9.57;5.38;;;1.00;99.90;;;;;;5029717;28;20033;-67
2021/12/03 01:45:22;;;;;;;12.20;4.53;;;1.00;99.90;;;;;;5025494;28;20088;-67
2021/12/03 01:47:49;;;;;;;13.35;7.15;;;1.10;99.90;;;;;;5028739;28;20029;-67
2021/12/03 01:50:16;;;;;;;9.52;4.85;;;1.10;99.90;;;;;;5024030;28;20038;-67
2021/12/03 01:52:42;;;;;;;14.68;6.00;;;1.10;99.90;;;;;;5027505;28;20384;-67
2021/12/03 01:55:11;;;;;;;5.07;3.33;;;1.10;99.90;;;;;;5030532;28;20476;-67
2021/12/03 01:57:37;;;;;;;12.88;5.18;;;1.10;99.90;;;;;;5026058;28;20025;-67
2021/12/03 02:00:13;;;;;;;12.05;5.97;;;1.10;99.90;;;;;;5027978;28;20097;-67
2021/12/03 02:02:39;;;;;;;22.88;6.03;;;1.20;99.90;;;;;;5022561;28;20029;-67
2021/12/03 02:05:05;;;;;;;5.53;3.13;;;1.20;99.90;;;;;;5029323;28;20025;-67
2021/12/03 02:07:31;;;;;;;9.43;4.60;;;1.20;99.90;;;;;;5029588;28;20449;-67
2021/12/03 02:09:56;;;;;;;10.48;6.22;;;1.20;99.90;;;;;;5030282;28;20105;-67
2021/12/03 02:12:22;;;;;;;15.90;4.63;;;1.30;99.90;;;;;;5029445;28;20041;-67
2021/12/03 02:14:48;;;;;;;25.98;7.53;;;1.30;99.90;;;;;;5024326;28;20101;-67
2021/12/03 02:17:14;;;;;;;10.05;4.47;;;1.30;99.90;;;;;;5027381;28;20025;-67
2021/12/03 02:19:40;;;;;;;16.65;3.80;;;1.30;99.90;;;;;;5028069;28;20113;-67
2021/12/03 02:22:05;;;;;;;11.32;5.10;;;1.30;99.90;;;;;;5024389;28;20096;-67
2021/12/03 02:24:31;;;;;;;15.38;5.13;;;1.40;99.90;;;;;;5025977;28;20477;-66
2021/12/03 02:26:57;;;;;;;12.70;7.40;;;1.30;99.90;;;;;;5024395;28;20017;-66
2021/12/03 02:29:22;;;;;;;10.13;5.13;;;1.30;99.90;;;;;;5026487;28;20026;-67
2021/12/03 02:31:48;;;;;;;15.10;5.40;;;1.30;99.90;;;;;;5036125;28;20036;-67
2021/12/03 02:34:14;;;;;;;12.73;6.00;;;1.40;99.90;;;;;;5028425;28;20056;-67
2021/12/03 02:36:39;;;;;;;11.73;6.57;;;1.30;99.90;;;;;;5026917;28;20032;-67
2021/12/03 02:39:05;;;;;;;12.23;4.45;;;1.40;99.90;;;;;;5033885;28;20044;-67
2021/12/03 02:41:31;;;;;;;14.95;5.15;;;1.30;99.90;;;;;;5029899;28;20022;-66
2021/12/03 02:43:57;;;;;;;9.52;4.60;;;1.40;99.90;;;;;;5028478;28;20056;-67
2021/12/03 02:46:23;;;;;;;18.45;8.07;;;1.40;99.90;;;;;;5023446;28;20033;-67
2021/12/03 02:48:48;;;;;;;11.75;4.95;;;1.30;99.90;;;;;;5023876;28;20029;-67
2021/12/03 02:51:14;;;;;;;8.57;4.30;;;1.30;99.90;;;;;;5032016;28;20032;-67
2021/12/03 02:53:40;;;;;;;14.52;4.45;;;1.20;99.90;;;;;;5031314;28;20041;-67
2021/12/03 02:56:07;;;;;;;23.02;4.38;;;1.10;99.90;;;;;;5028587;28;20140;-67
2021/12/03 02:58:33;;;;;;;15.98;6.93;;;1.10;99.90;;;;;;5031066;28;20028;-67
2021/12/03 03:00:59;;;;;;;8.65;5.13;;;1.10;99.90;;;;;;5023846;28;20022;-67
2021/12/03 03:03:25;;;;;;;11.00;4.40;;;1.20;99.90;;;;;;5023757;28;20570;-67
2021/12/03 03:05:55;;;;;;;8.65;4.40;;;1.30;99.90;;;;;;5031249;28;20393;-66
2021/12/03 03:08:20;;;;;;;10.13;5.25;;;1.30;99.90;;;;;;5032733;28;20029;-67
2021/12/03 03:10:46;;;;;;;16.58;6.63;;;1.30;99.90;;;;;;5031708;28;20040;-67
2021/12/03 03:13:12;;;;;;;14.57;3.67;;;1.30;99.90;;;;;;5021201;28;20122;-67
2021/12/03 03:15:39;;;;;;;14.60;5.07;;;1.30;99.90;;;;;;5020535;28;20093;-67
2021/12/03 03:18:16;;;;;;;13.38;5.18;;;1.40;99.90;;;;;;5030388;28;20013;-67
2021/12/03 03:20:44;;;;;;;16.05;6.00;;;1.40;99.90;;;;;;5023659;28;20025;-67
2021/12/03 03:23:12;;;;;;;10.70;4.03;;;1.50;99.90;;;;;;5028570;28;20508;-67
2021/12/03 03:25:42;;;;;;;11.30;4.72;;;1.50;99.90;;;;;;5024636;28;20057;-67
2021/12/03 03:28:09;;;;;;;16.08;5.55;;;1.50;99.90;;;;;;5023913;28;20045;-67
2021/12/03 03:30:37;;;;;;;9.93;3.75;;;1.50;99.90;;;;;;5029908;28;20045;-66
2021/12/03 03:33:04;;;;;;;9.68;4.63;;;1.60;99.90;;;;;;5029217;28;20026;-66
2021/12/03 03:35:29;;;;;;;11.32;4.60;;;1.60;99.90;;;;;;5023447;28;20026;-66
2021/12/03 03:37:55;;;;;;;10.43;4.45;;;1.60;99.90;;;;;;5032555;28;20405;-66
2021/12/03 03:40:21;;;;;;;6.18;4.18;;;1.50;99.90;;;;;;5025006;28;20022;-66
2021/12/03 03:42:47;;;;;;;9.68;4.88;;;1.60;99.90;;;;;;5027894;28;20080;-66
2021/12/03 03:45:16;;;;;;;13.82;4.68;;;1.60;99.90;;;;;;5024935;28;20042;-66
2021/12/03 03:47:43;;;;;;;13.95;7.20;;;1.60;99.90;;;;;;5032488;28;20539;-67
2021/12/03 03:50:10;;;;;;;12.30;6.30;;;1.60;99.90;;;;;;5027818;28;20026;-67
2021/12/03 03:52:39;;;;;;;15.25;8.70;;;1.70;99.90;;;;;;5031109;28;20396;-66
2021/12/03 03:55:09;;;;;;;11.70;6.38;;;1.70;99.90;;;;;;5027858;28;20297;-67
2021/12/03 03:57:35;;;;;;;15.38;6.90;;;1.70;99.90;;;;;;5027121;28;20097;-66
2021/12/03 04:00:02;;;;;;;9.63;4.47;;;1.70;99.90;;;;;;5027894;28;20105;-66
2021/12/03 04:02:28;;;;;;;13.43;6.75;;;1.70;99.90;;;;;;5020741;28;20096;-66
2021/12/03 04:04:54;;;;;;;6.30;3.13;;;1.80;99.90;;;;;;5031724;28;20026;-66
2021/12/03 04:07:19;;;;;;;10.57;5.63;;;1.80;99.90;;;;;;5028983;28;20045;-66
2021/12/03 04:09:45;;;;;;;10.45;4.55;;;1.80;99.90;;;;;;5029059;28;20055;-66
2021/12/03 04:12:12;;;;;;;6.78;4.07;;;1.80;99.90;;;;;;5018263;28;20505;-66
2021/12/03 04:14:38;;;;;;;10.13;5.18;;;1.80;99.90;;;;;;5030057;28;20454;-66
2021/12/03 04:17:04;;;;;;;11.35;4.25;;;1.70;99.90;;;;;;5029267;28;20053;-66
2021/12/03 04:19:29;;;;;;;17.85;6.68;;;1.70;99.90;;;;;;5022487;28;20032;-66
2021/12/03 04:21:55;;;;;;;10.40;5.57;;;1.70;99.90;;;;;;5023588;28;20036;-66
2021/12/03 04:24:21;;;;;;;9.95;4.47;;;1.70;99.90;;;;;;5023192;28;20030;-66
2021/12/03 04:26:46;;;;;;;19.65;5.07;;;1.70;99.90;;;;;;5025344;28;20029;-66
2021/12/03 04:29:12;;;;;;;10.85;5.38;;;1.70;99.90;;;;;;5029156;28;20028;-66
2021/12/03 04:31:38;;;;;;;20.17;8.70;;;1.70;99.90;;;;;;5025643;28;20424;-67
2021/12/03 04:34:04;;;;;;;9.15;4.00;;;1.70;99.90;;;;;;5027951;28;20029;-67
2021/12/03 04:36:29;;;;;;;15.48;9.00;;;1.80;99.90;;;;;;5029528;28;20030;-67
2021/12/03 04:38:55;;;;;;;9.50;3.30;;;1.80;99.90;;;;;;5031431;28;20384;-67
2021/12/03 04:41:21;;;;;;;21.58;5.68;;;1.80;99.90;;;;;;5029112;28;20033;-67
2021/12/03 04:43:47;;;;;;;12.10;6.72;;;1.80;99.90;;;;;;5025194;28;20025;-67
2021/12/03 04:46:12;;;;;;;8.80;3.50;;;1.80;99.90;;;;;;5028173;28;20388;-67
2021/12/03 04:48:38;;;;;;;14.32;4.82;;;1.80;99.90;;;;;;5027329;28;20026;-67
2021/12/03 04:51:04;;;;;;;12.90;5.18;;;1.80;99.90;;;;;;5030095;28;20032;-67
2021/12/03 04:53:30;;;;;;;9.10;5.55;;;1.80;99.90;;;;;;5028878;28;20029;-68
2021/12/03 04:55:56;;;;;;;10.70;5.22;;;1.90;99.90;;;;;;5025568;28;20021;-67
2021/12/03 04:58:21;;;;;;;10.98;3.58;;;1.90;99.90;;;;;;5028785;28;20028;-67
2021/12/03 05:00:55;;;;;;;10.55;4.03;;;1.90;99.90;;;;;;5022937;28;20022;-67
2021/12/03 05:03:24;;;;;;;14.32;4.35;;;1.90;99.90;;;;;;5026020;28;20029;-67
2021/12/03 05:05:54;;;;;;;32.53;5.28;;;1.90;99.90;;;;;;5029756;28;20081;-67
2021/12/03 05:08:20;;;;;;;5.32;3.13;;;1.90;99.90;;;;;;5030649;28;20048;-67
2021/12/03 05:10:46;;;;;;;8.23;4.43;;;1.90;99.90;;;;;;5027771;28;20033;-67
2021/12/03 05:13:21;;;;;;;5.20;1.80;;;1.90;99.90;;;;;;5025522;28;20022;-67
2021/12/03 05:15:47;;;;;;;13.35;5.60;;;1.90;99.90;;;;;;5028653;28;20375;-67
2021/12/03 05:18:17;;;;;;;14.68;5.15;;;1.90;99.90;;;;;;5030624;28;20066;-67
2021/12/03 05:20:44;;;;;;;11.23;3.67;;;1.90;99.90;;;;;;5028916;28;20492;-67
2021/12/03 05:23:10;;;;;;;8.98;4.05;;;1.90;99.90;;;;;;5024737;28;20022;-67
2021/12/03 05:25:36;;;;;;;16.90;5.93;;;1.90;99.90;;;;;;5029964;28;20034;-67
2021/12/03 05:28:04;;;;;;;12.40;4.55;;;1.90;99.90;;;;;;5021100;28;20036;-67
2021/12/03 05:30:30;;;;;;;9.32;4.63;;;1.90;99.90;;;;;;5026626;28;20025;-67
2021/12/03 05:32:56;;;;;;;10.25;4.88;;;1.90;99.90;;;;;;5031136;28;20025;-67
2021/12/03 05:35:23;;;;;;;8.63;2.53;;;1.90;99.90;;;;;;5024315;28;20083;-67
2021/12/03 05:37:49;;;;;;;19.30;6.68;;;1.90;99.90;;;;;;5028897;28;20025;-67
2021/12/03 05:40:15;;;;;;;8.98;4.50;;;2.00;99.90;;;;;;5030709;28;20072;-67
2021/12/03 05:42:42;;;;;;;8.57;2.83;;;2.00;99.90;;;;;;5030594;28;20087;-67
2021/12/03 05:45:11;;;;;;;10.68;4.90;;;2.10;99.90;;;;;;5014683;28;20041;-67
2021/12/03 05:47:37;;;;;;;11.55;5.82;;;2.10;99.90;;;;;;5027817;28;20024;-67
2021/12/03 05:50:04;;;;;;;10.88;3.85;;;2.10;99.90;;;;;;5029084;28;20029;-67
2021/12/03 05:52:30;;;;;;;19.88;5.38;;;2.10;99.90;;;;;;5029166;28;20115;-67
2021/12/03 05:54:55;;;;;;;19.90;6.88;;;2.10;99.90;;;;;;5031667;28;20068;-67
2021/12/03 05:57:21;;;;;;;9.90;4.60;;;2.10;99.90;;;;;;5029275;28;20022;-66
2021/12/03 05:59:47;;;;;;;13.90;5.53;;;2.10;99.90;;;;;;5029281;28;20037;-67
2021/12/03 06:02:12;;;;;;;12.05;4.70;;;2.10;99.90;;;;;;5020735;28;20082;-67
2021/12/03 06:04:38;;;;;;;8.50;4.05;;;2.10;99.90;;;;;;5027450;28;20425;-67
2021/12/03 06:07:04;;;;;;;9.10;4.68;;;2.20;99.90;;;;;;5028782;28;20049;-67
2021/12/03 06:09:30;;;;;;;7.65;4.07;;;2.20;99.90;;;;;;5023261;28;20054;-67
2021/12/03 06:11:56;;;;;;;14.88;6.82;;;2.20;99.90;;;;;;5029193;28;20029;-67
2021/12/03 06:14:22;;;;;;;15.88;7.78;;;2.20;99.90;;;;;;5026669;28;20385;-67
2021/12/03 06:16:47;;;;;;;20.17;6.45;;;2.20;99.90;;;;;;5028535;28;20021;-67
2021/12/03 06:19:13;;;;;;;10.07;5.13;;;2.30;99.90;;;;;;5027702;28;20083;-67
2021/12/03 06:21:39;;;;;;;16.02;8.10;;;2.30;99.90;;;;;;5026968;28;20354;-67
2021/12/03 06:24:05;;;;;;;13.77;5.82;;;2.30;99.90;;;;;;5024352;28;20030;-67
2021/12/03 06:26:30;;;;;;;16.92;5.40;;;2.30;99.90;;;;;;5020103;28;20025;-67
2021/12/03 06:28:56;;;;;;;9.88;3.47;;;2.30;99.90;;;;;;5027775;28;20097;-67
2021/12/03 06:31:21;;;;;;;6.45;3.83;;;2.30;99.90;;;;;;5028302;28;20039;-67
2021/12/03 06:33:47;;;;;;;12.23;5.25;;;2.30;99.90;;;;;;5028545;28;20100;-67
2021/12/03 06:36:13;;;;;;;19.10;4.63;;;2.40;99.90;;;;;;5025477;28;20036;-67
2021/12/03 06:38:39;;;;;;;11.60;5.95;;;2.40;99.90;;;;;;5027680;28;20030;-67
2021/12/03 06:41:06;;;;;;;8.05;4.32;;;2.40;99.90;;;;;;5025238;28;20056;-67
2021/12/03 06:43:32;;;;;;;13.45;6.43;;;2.30;99.90;;;;;;5026701;28;20017;-67
2021/12/03 06:45:58;;;;;;;11.63;5.07;;;2.40;99.90;;;;;;5025497;28;20048;-67
2021/12/03 06:48:23;;;;;;;8.10;4.60;;;2.30;99.90;;;;;;5024366;28;20030;-67
2021/12/03 06:50:51;;;;;;;11.57;4.60;;;2.30;99.90;;;;;;5025132;28;20037;-67
2021/12/03 06:53:21;;;;;;;12.95;4.25;;;2.30;99.90;;;;;;5041133;28;20021;-67
2021/12/03 06:55:48;;;;;;;9.93;4.15;;;2.30;99.90;;;;;;5029997;28;20120;-66
2021/12/03 06:58:15;;;;;;;16.13;2.83;;;2.40;99.90;;;;;;5027230;28;20026;-67
2021/12/03 07:00:43;;;;;;;13.68;4.18;;;2.40;99.90;;;;;;5027270;28;20424;-67
2021/12/03 07:03:09;;;;;;;15.05;3.40;;;2.40;99.90;;;;;;5024361;28;20021;-67
2021/12/03 07:05:35;;;;;;;8.75;4.60;;;2.50;99.90;;;;;;5026942;28;20446;-67
2021/12/03 07:08:00;;;;;;;5.80;2.85;;;2.40;99.90;;;;;;5025989;28;20084;-67
2021/12/03 07:10:26;;;;;;;12.52;5.75;;;2.50;99.90;;;;;;5021412;28;20030;-67
2021/12/03 07:12:52;;;;;;;6.53;2.33;;;2.50;99.90;;;;;;5022005;28;20030;-67
2021/12/03 07:15:18;;;;;;;8.35;3.67;;;2.50;99.90;;;;;;5037603;28;20033;-67
2021/12/03 07:17:45;;;;;;;9.48;4.43;;;2.50;99.90;;;;;;5024953;28;20486;-67
2021/12/03 07:20:11;;;;;;;11.93;2.97;;;2.50;99.90;;;;;;5023091;28;20320;-67
2021/12/03 07:22:37;;;;;;;5.13;2.65;;;2.60;99.90;;;;;;5027104;28;20097;-67
2021/12/03 07:25:04;;;;;;;12.70;3.75;;;2.60;99.90;;;;;;5025466;28;20451;-67
2021/12/03 07:27:30;;;;;;;11.75;2.20;;;2.60;99.90;;;;;;5030145;28;20104;-67
2021/12/03 07:29:55;;;;;;;6.47;2.20;;;2.60;99.90;;;;;;5030866;28;20141;-66
2021/12/03 07:32:23;;;;;;;4.32;2.83;;;2.60;99.90;;;;;;5030495;28;20500;-66
2021/12/03 07:34:51;;;;;;;6.43;3.63;;;2.60;99.90;;;;;;5031049;28;20029;-66
2021/12/03 07:37:17;;;;;;;9.20;4.35;;;2.70;99.90;;;;;;5031046;28;20369;-66
2021/12/03 07:39:44;;;;;;;10.27;4.85;;;2.60;99.90;;;;;;5031811;28;20013;-67
2021/12/03 07:42:10;;;;;;;12.15;5.55;;;2.70;99.90;;;;;;5024836;28;20025;-67
2021/12/03 07:44:35;;;;;;;8.95;4.57;;;2.70;99.90;;;;;;5025072;28;20030;-67
2021/12/03 07:47:01;;;;;;;7.93;3.35;;;2.70;99.90;;;;;;5027652;28;20021;-67
2021/12/03 07:49:27;;;;;;;8.18;3.60;;;2.70;99.90;;;;;;5024867;28;20334;-67
2021/12/03 07:51:54;;;;;;;6.93;4.53;;;2.70;99.90;;;;;;5022600;28;20456;-67
2021/12/03 07:54:20;;;;;;;6.35;2.92;;;2.80;99.90;;;;;;5024864;28;20538;-67
2021/12/03 07:56:47;;;;;;;20.55;5.82;;;2.70;99.90;;;;;;5022882;28;20108;-67
2021/12/03 07:59:12;;;;;;;11.35;3.72;;;2.70;99.90;;;;;;5021480;28;20027;-67
2021/12/03 08:01:42;;;;;;;17.77;6.25;;;2.80;99.90;;;;;;5019106;28;20022;-67
2021/12/03 08:04:08;;;;;;;11.90;4.90;;;2.80;99.90;;;;;;5023664;28;20040;-67
2021/12/03 08:06:36;;;;;;;13.32;4.75;;;2.80;99.90;;;;;;5020994;28;20065;-67
2021/12/03 08:09:02;;;;;;;12.32;4.95;;;2.80;99.90;;;;;;5021745;28;20108;-67
2021/12/03 08:11:27;;;;;;;20.50;5.32;;;2.90;99.90;;;;;;5027155;28;20657;-67
2021/12/03 08:13:53;;;;;;;12.43;5.35;;;2.90;99.90;;;;;;5025664;28;20060;-67
2021/12/03 08:16:18;;;;;;;11.25;4.75;;;2.90;99.90;;;;;;5026721;28;20017;-67
2021/12/03 08:18:45;;;;;;;5.80;3.30;;;3.00;99.90;;;;;;5026856;28;20056;-67
2021/12/03 08:21:11;;;;;;;11.43;4.30;;;3.00;99.90;;;;;;5022128;28;20021;-67
2021/12/03 08:23:36;;;;;;;15.10;6.35;;;3.00;99.90;;;;;;5024681;28;20037;-67
2021/12/03 08:26:02;;;;;;;17.05;4.80;;;3.00;99.90;;;;;;5023969;28;20105;-67
2021/12/03 08:28:27;;;;;;;13.40;5.72;;;3.00;99.90;;;;;;5021257;28;20056;-67
2021/12/03 08:30:53;;;;;;;9.38;4.00;;;3.10;99.90;;;;;;5023588;28;20029;-67
2021/12/03 08:33:19;;;;;;;18.65;5.32;;;3.10;99.90;;;;;;5020955;28;20079;-67
2021/12/03 08:35:45;;;;;;;15.68;5.35;;;3.10;99.90;;;;;;5021629;28;20030;-67
2021/12/03 08:38:10;;;;;;;13.07;6.35;;;3.10;99.90;;;;;;5028143;28;20025;-67
2021/12/03 08:40:36;;;;;;;9.43;4.68;;;3.20;99.90;;;;;;5028406;28;20032;-67
2021/12/03 08:43:02;;;;;;;12.73;4.05;;;3.30;99.90;;;;;;5023243;28;20452;-67
2021/12/03 08:45:28;;;;;;;7.68;3.40;;;3.40;99.90;;;;;;5025392;28;20496;-67
2021/12/03 08:47:59;;;;;;;6.70;2.97;;;3.40;99.90;;;;;;5023623;28;20040;-68
2021/12/03 08:55:42;;;;;;;7.25;2.85;;;3.40;99.90;;;;;;5025963;28;20026;-67
2021/12/03 08:58:09;;;;;;;14.00;4.03;;;3.40;99.90;;;;;;5020282;28;20096;-67
2021/12/03 09:00:36;;;;;;;5.78;2.67;;;3.40;99.90;;;;;;5020032;28;20022;-67
2021/12/03 09:03:03;;;;;;;9.52;2.67;;;3.40;99.90;;;;;;5035956;28;20119;-67
2021/12/03 09:05:32;;;;;;;6.07;2.78;;;3.40;99.90;;;;;;5023471;28;20080;-67
2021/12/03 09:07:58;;;;;;;9.55;3.72;;;3.40;99.90;;;;;;5024455;28;20033;-67
2021/12/03 09:10:24;;;;;;;17.20;2.60;;;3.40;99.90;;;;;;5025788;28;20028;-67
2021/12/03 09:12:52;;;;;;;6.88;3.28;;;3.40;99.90;;;;;;5018402;28;20041;-67
2021/12/03 09:15:23;;;;;;;5.35;3.15;;;3.50;99.90;;;;;;5022014;28;20523;-67
2021/12/03 09:22:59;;;;;;;15.57;2.47;;;3.40;99.90;;;;;;5016902;28;20481;-67
2021/12/03 09:25:33;;;;;;;7.57;2.17;;;3.50;99.90;;;;;;5029478;28;20380;-67
2021/12/03 09:28:02;;;;;;;9.90;4.65;;;3.50;99.90;;;;;;5025233;28;20030;-67
2021/12/03 09:30:36;;;;;;;7.68;3.60;;;3.40;99.90;;;;;;5030127;28;20018;-67
2021/12/03 09:33:05;;;;;;;10.30;2.10;;;3.40;99.90;;;;;;5025535;28;20145;-67
2021/12/03 09:35:30;;;;;;;4.43;2.13;;;3.50;99.90;;;;;;5029941;28;20020;-67
2021/12/03 09:37:56;;;;;;;6.00;1.95;;;3.50;99.90;;;;;;5027277;28;20397;-67
2021/12/03 09:40:25;;;;;;;2.90;1.83;;;3.50;99.90;;;;;;5028544;28;20021;-67
2021/12/03 09:42:51;;;;;;;11.68;3.97;;;3.60;99.90;;;;;;5025564;28;20036;-67
2021/12/03 09:45:17;;;;;;;6.72;3.03;;;3.60;99.90;;;;;;5026085;28;20401;-67
2021/12/03 09:47:43;;;;;;;6.20;2.45;;;3.60;99.90;;;;;;5025132;28;20025;-67
2021/12/03 09:50:13;;;;;;;5.22;2.72;;;3.60;99.90;;;;;;5024681;28;20030;-67
2021/12/03 09:55:13;;;;;;;6.30;1.90;;;3.70;99.90;;;;;;5026277;28;20389;-67
2021/12/03 10:00:15;;;;;;;1.85;1.27;;;3.80;99.90;;;;;;5021959;28;20067;-67
2021/12/03 10:14:11;;;;;;;4.20;3.25;;;4.00;99.90;;;;;;5029602;28;20031;-67
2021/12/03 10:19:58;;;;;;;3.80;1.83;;;3.90;99.90;;;;;;5006748;28;20025;-67
2021/12/03 10:27:53;;;;;;;8.15;2.13;;;4.20;99.90;;;;;;5026374;28;20026;-67
2021/12/03 10:33:12;;;;;;;4.05;1.92;;;4.20;99.90;;;;;;5022550;28;20036;-67
2021/12/03 10:38:47;;;;;;;2.22;1.55;;;4.20;99.90;;;;;;5031301;28;20025;-67
2021/12/03 10:49:03;;;;;;;13.95;1.73;;;4.40;99.90;;;;;;5026442;28;20116;-67
2021/12/03 10:51:40;;;;;;;2.45;1.58;;;4.40;99.90;;;;;;5029548;28;20057;-67
2021/12/03 11:12:56;;;;;;;20.50;3.08;;;4.50;99.90;;;;;;5029363;28;20041;-67
2021/12/03 11:31:42;;;;;;;3.95;1.88;;;4.30;99.90;;;;;;5028899;28;20037;-67
2021/12/03 13:08:06;;;;;;;6.40;1.70;;;4.50;99.90;;;;;;5023440;28;20060;-66
2021/12/03 14:00:47;;;;;;;3.40;1.10;;;4.60;99.90;;;;;;5024861;28;20030;-66
2021/12/03 14:11:36;;;;;;;5.38;1.98;;;4.80;99.90;;;;;;5027137;28;20037;-66
2021/12/03 14:14:44;;;;;;;4.25;1.00;;;4.60;99.90;;;;;;5021737;28;20041;-66
2021/12/03 14:38:50;;;;;;;2.35;1.30;;;4.50;99.90;;;;;;5024476;28;20041;-66
2021/12/03 14:52:35;;;;;;;1.50;1.23;;;4.40;99.90;;;;;;5028037;28;20069;-66
2021/12/03 14:55:04;;;;;;;3.83;1.33;;;4.40;99.90;;;;;;5023922;28;20025;-66
2021/12/03 14:57:45;;;;;;;4.68;1.50;;;4.40;99.90;;;;;;5025670;28;20026;-66
2021/12/03 15:00:26;;;;;;;1.52;1.20;;;4.40;99.90;;;;;;5019026;28;20814;-66
2021/12/03 15:08:23;;;;;;;2.38;1.30;;;4.40;99.90;;;;;;5027734;28;20037;-65
2021/12/03 15:32:06;;;;;;;2.40;1.27;;;4.30;99.90;;;;;;5025507;28;20109;-66
2021/12/03 15:40:17;;;;;;;2.88;1.42;;;4.30;99.90;;;;;;5024351;28;20099;-66
2021/12/03 16:12:02;;;;;;;4.80;2.08;;;4.00;99.90;;;;;;5025373;28;20071;-66
2021/12/03 16:17:11;;;;;;;1.77;0.90;;;3.90;99.90;;;;;;5029100;28;20087;-66
2021/12/03 16:43:59;;;;;;;2.75;1.25;;;3.80;99.90;;;;;;5025649;28;20049;-66
2021/12/03 16:46:28;;;;;;;5.50;2.30;;;3.70;99.90;;;;;;5032385;28;20578;-66
2021/12/03 16:52:15;;;;;;;2.70;1.70;;;3.60;99.90;;;;;;5028657;28;20160;-66
2021/12/03 16:54:40;;;;;;;5.22;2.40;;;3.60;99.90;;;;;;5025813;28;20137;-66
2021/12/03 16:57:07;;;;;;;3.55;1.38;;;3.60;99.90;;;;;;5023854;28;20088;-67
2021/12/03 16:59:33;;;;;;;4.30;1.75;;;3.50;99.90;;;;;;5023537;28;20025;-66
2021/12/03 17:02:08;;;;;;;3.53;1.08;;;3.60;99.90;;;;;;5019637;28;20533;-66
2021/12/03 17:23:31;;;;;;;5.28;2.38;;;3.50;99.90;;;;;;5024516;28;20037;-66
2021/12/03 17:52:50;;;;;;;2.38;1.20;;;3.50;99.90;;;;;;5022999;28;20561;-66
2021/12/03 17:57:42;;;;;;;3.85;1.50;;;3.50;99.90;;;;;;5023435;28;20091;-66
2021/12/03 18:00:15;;;;;;;6.60;2.67;;;3.50;99.90;;;;;;5021637;28;20110;-66
2021/12/03 18:02:45;;;;;;;1.35;1.02;;;3.50;99.90;;;;;;5018716;28;20029;-66
2021/12/03 18:48:32;;;;;;;3.70;1.95;;;3.40;99.90;;;;;;5019927;28;20072;-66
2021/12/03 18:50:59;;;;;;;6.13;2.33;;;3.50;99.90;;;;;;5019676;28;20037;-66
2021/12/03 18:53:42;;;;;;;3.92;1.83;;;3.50;99.90;;;;;;5018127;28;20032;-66
2021/12/03 18:56:17;;;;;;;2.70;1.08;;;3.50;99.90;;;;;;5016644;28;20013;-66
2021/12/03 18:58:43;;;;;;;5.40;2.58;;;3.50;99.90;;;;;;5008106;28;20032;-66
2021/12/03 19:01:11;;;;;;;2.85;1.67;;;3.50;99.90;;;;;;5017767;28;20021;-66
2021/12/03 19:06:30;;;;;;;9.18;2.75;;;3.50;99.90;;;;;;5017555;28;20051;-66
2021/12/03 19:09:00;;;;;;;4.30;1.45;;;3.60;99.90;;;;;;5018624;28;20474;-66
2021/12/03 19:11:30;;;;;;;2.30;1.05;;;3.60;99.90;;;;;;5015087;28;20040;-66
2021/12/03 19:13:56;;;;;;;2.78;1.30;;;3.70;99.90;;;;;;5021194;28;20061;-66
2021/12/03 19:16:24;;;;;;;3.28;1.25;;;3.70;99.90;;;;;;5019370;28;20701;-66
2021/12/03 19:18:53;;;;;;;3.50;1.48;;;3.70;99.90;;;;;;5023832;28;20029;-66
2021/12/03 19:21:25;;;;;;;2.97;1.55;;;3.70;99.90;;;;;;5020704;28;20052;-66
2021/12/03 19:23:55;;;;;;;1.00;0.90;;;3.70;99.90;;;;;;5023079;28;20151;-66
2021/12/03 19:26:20;;;;;;;2.42;1.33;;;3.70;99.90;;;;;;5021768;28;20053;-66
2021/12/03 19:28:48;;;;;;;6.45;1.80;;;3.70;99.90;;;;;;5018892;28;20076;-66
2021/12/03 19:31:13;;;;;;;6.97;1.77;;;3.70;99.90;;;;;;5024407;28;20056;-66
2021/12/03 19:33:40;;;;;;;2.70;1.25;;;3.70;99.90;;;;;;5018532;28;20440;-66
2021/12/03 19:36:07;;;;;;;2.45;1.42;;;3.70;99.90;;;;;;5025888;28;20707;-66
2021/12/03 19:38:36;;;;;;;2.75;1.35;;;3.70;99.90;;;;;;5019963;28;20033;-66
2021/12/03 19:41:11;;;;;;;2.63;1.27;;;3.70;99.90;;;;;;5019005;28;20029;-66
2021/12/03 19:43:50;;;;;;;3.60;1.40;;;3.70;99.90;;;;;;5017247;28;20091;-66
2021/12/03 19:46:20;;;;;;;2.50;1.35;;;3.70;99.90;;;;;;5032348;28;20091;-66
2021/12/03 19:48:57;;;;;;;1.85;1.13;;;3.70;99.90;;;;;;5022749;28;20082;-66
2021/12/03 19:51:26;;;;;;;2.90;1.30;;;3.70;99.90;;;;;;5023272;28;20075;-67
2021/12/03 19:56:23;;;;;;;2.40;1.25;;;3.80;99.90;;;;;;5016042;28;20031;-66
2021/12/03 19:58:49;;;;;;;3.00;1.50;;;3.80;99.90;;;;;;5018360;28;20128;-66
2021/12/03 20:01:15;;;;;;;4.53;1.63;;;3.80;99.90;;;;;;5021494;28;20128;-66
2021/12/03 20:03:40;;;;;;;5.80;1.92;;;3.80;99.90;;;;;;5017168;28;20033;-66
2021/12/03 20:06:06;;;;;;;1.73;1.08;;;3.80;99.90;;;;;;5023238;28;20053;-66
2021/12/03 20:08:33;;;;;;;3.88;1.65;;;3.90;99.90;;;;;;5016603;28;20038;-66
2021/12/03 20:11:02;;;;;;;2.15;1.20;;;3.90;99.90;;;;;;5023100;28;20064;-66
2021/12/03 20:13:28;;;;;;;3.15;1.30;;;3.90;99.90;;;;;;5021290;28;20025;-66
2021/12/03 20:18:36;;;;;;;3.70;2.00;;;4.00;99.90;;;;;;5020896;28;20033;-67
2021/12/03 20:21:03;;;;;;;3.83;1.35;;;3.90;99.90;;;;;;5014694;28;20662;-67
2021/12/03 20:31:20;;;;;;;2.30;1.27;;;4.00;99.90;;;;;;5020820;28;20056;-67
2021/12/03 20:38:51;;;;;;;2.03;1.17;;;4.00;99.90;;;;;;5024192;28;20057;-67
2021/12/03 20:41:27;;;;;;;2.55;1.50;;;4.00;99.90;;;;;;5022916;28;20030;-68
2021/12/03 20:46:51;;;;;;;2.05;1.25;;;4.10;99.90;;;;;;5024698;28;20032;-67
2021/12/03 20:54:35;;;;;;;2.33;1.08;;;4.00;99.90;;;;;;5022237;28;20604;-67